Time;durP1;ratioP1;P1;durP2;ratioP2;P2;SDS_P1;SDS_P2;PMS_P1;PMS_P2;Temp;Humidity;BMP_temperature;BMP_pressure;BME280_temperature;BME280_humidity;BME280_pressure;Samples;Min_cycle;Max_cycle;Signal;HPM_P1;HPM_P2
2022/02/10 00:17:26;;;;;;;;;;;22.30;31.60;;;;;;5088579;28;19923;-63
2022/02/10 00:34:41;;;;;;;;;;;22.30;31.60;;;;;;5088162;28;19990;-63
2022/02/10 00:37:14;;;;;;;;;;;22.30;31.60;;;;;;5087425;28;20511;-63
2022/02/10 00:40:04;;;;;;;;;;;22.30;31.60;;;;;;5089042;28;20380;-63
2022/02/10 00:42:27;;;;;;;;;;;22.30;31.60;;;;;;5089485;28;20327;-62
2022/02/10 00:44:54;;;;;;;;;;;22.30;31.60;;;;;;5088581;28;19932;-63
2022/02/10 00:47:22;;;;;;;;;;;22.30;31.60;;;;;;5087710;28;20369;-62
2022/02/10 00:49:49;;;;;;;;;;;22.30;31.50;;;;;;5089105;28;19924;-62
2022/02/10 00:52:16;;;;;;;;;;;22.30;31.50;;;;;;5089615;28;19981;-63
2022/02/10 01:10:30;;;;;;;;;;;22.30;31.60;;;;;;5074541;28;20058;-62
2022/02/10 01:13:27;;;;;;;;;;;22.30;31.60;;;;;;5088166;28;19995;-62
2022/02/10 01:30:13;;;;;;;;;;;22.20;31.50;;;;;;5093379;28;20049;-64
2022/02/10 01:32:44;;;;;;;;;;;22.20;31.50;;;;;;5093003;28;19924;-62
2022/02/10 01:35:15;;;;;;;;;;;22.20;31.60;;;;;;5092372;28;20447;-62
2022/02/10 01:37:42;;;;;;;;;;;22.20;31.50;;;;;;5090566;28;19924;-63
2022/02/10 01:40:17;;;;;;;;;;;22.20;31.50;;;;;;5093210;28;20077;-63
2022/02/10 01:58:03;;;;;;;;;;;22.20;31.50;;;;;;5091117;28;20218;-63
2022/02/10 02:06:59;;;;;;;;;;;22.20;31.50;;;;;;5091029;28;19918;-62
2022/02/10 02:09:26;;;;;;;;;;;22.20;31.50;;;;;;5091985;28;19973;-63
2022/02/10 02:11:55;;;;;;;;;;;22.20;31.50;;;;;;5092847;28;20392;-63
2022/02/10 02:14:24;;;;;;;;;;;22.20;31.50;;;;;;5091272;28;20246;-63
2022/02/10 02:16:52;;;;;;;;;;;22.20;31.50;;;;;;5090664;28;19954;-63
2022/02/10 02:22:51;;;;;;;;;;;22.20;31.50;;;;;;5091314;28;19965;-63
2022/02/10 02:25:18;;;;;;;;;;;22.20;31.50;;;;;;5073574;28;19924;-62
2022/02/10 02:27:47;;;;;;;;;;;22.20;31.50;;;;;;5089808;28;19978;-62
2022/02/10 02:30:44;;;;;;;;;;;22.20;31.50;;;;;;5091526;28;20343;-62
2022/02/10 03:07:10;;;;;;;;;;;22.10;31.50;;;;;;5089292;28;19963;-63
2022/02/10 03:09:42;;;;;;;;;;;22.10;31.40;;;;;;5090906;28;19983;-62
2022/02/10 03:12:11;;;;;;;;;;;22.10;31.40;;;;;;5091707;28;19924;-62
2022/02/10 03:14:46;;;;;;;;;;;22.10;31.50;;;;;;5090059;28;19989;-63
2022/02/10 03:20:19;;;;;;;;;;;22.10;31.50;;;;;;5090715;28;20254;-62
2022/02/10 04:04:01;;;;;;;;;;;22.00;31.40;;;;;;5088967;28;20391;-62
2022/02/10 04:06:55;;;;;;;;;;;22.00;31.40;;;;;;5088551;28;19924;-62
2022/02/10 04:15:45;;;;;;;;;;;22.00;31.40;;;;;;5102377;28;20361;-62
2022/02/10 04:27:57;;;;;;;;;;;22.00;31.50;;;;;;5087838;28;20412;-62
2022/02/10 04:53:03;;;;;;;;;;;22.00;31.50;;;;;;5067677;28;19924;-63
2022/02/10 04:53:33;;;;;;;;;;;22.00;31.50;;;;;;5069833;28;19970;-62
2022/02/10 04:57:35;;;;;;;;;;;22.00;31.50;;;;;;5067534;28;20277;-62
2022/02/10 05:00:09;;;;;;;;;;;22.00;31.50;;;;;;5085215;28;20296;-63
2022/02/10 05:03:12;;;;;;;;;;;22.00;31.50;;;;;;5087619;28;20600;-62
2022/02/10 05:06:04;;;;;;;;;;;22.00;31.50;;;;;;5088445;28;19981;-62
2022/02/10 05:08:37;;;;;;;;;;;22.00;31.50;;;;;;5087037;28;19924;-62
2022/02/10 05:16:47;;;;;;;;;;;22.00;31.50;;;;;;5087402;28;20557;-62
2022/02/10 05:23:17;;;;;;;;;;;22.00;31.60;;;;;;5088629;28;20324;-62
2022/02/10 05:31:53;;;;;;;;;;;22.00;31.60;;;;;;5089477;28;19924;-63
2022/02/10 05:37:30;;;;;;;;;;;22.00;31.60;;;;;;5086436;28;19924;-62
2022/02/10 05:40:00;;;;;;;;;;;21.90;31.50;;;;;;5088878;28;19935;-62
2022/02/10 05:43:04;;;;;;;;;;;22.00;31.60;;;;;;5088694;28;19970;-62
2022/02/10 05:45:33;;;;;;;;;;;21.90;31.50;;;;;;5088240;28;20093;-63
2022/02/10 05:48:43;;;;;;;;;;;21.90;31.50;;;;;;5085969;28;19986;-62
2022/02/10 05:53:56;;;;;;;;;;;21.90;31.60;;;;;;5071218;28;19924;-62
2022/02/10 06:44:14;;;;;;;;;;;22.20;30.60;;;;;;5095231;28;19924;-63
2022/02/10 06:51:26;;;;;;;;;;;22.40;30.30;;;;;;5075395;28;19924;-63
2022/02/10 06:53:26;;;;;;;;;;;22.50;30.20;;;;;;5091068;28;20293;-65
2022/02/10 07:02:44;;;;;;;;;;;22.70;30.10;;;;;;5089709;28;19924;-63
2022/02/10 07:04:39;;;;;;;;;;;22.80;29.90;;;;;;5090699;28;19955;-63
2022/02/10 07:07:30;;;;;;;;;;;22.90;29.80;;;;;;5090360;28;19925;-63
2022/02/10 07:46:35;;;;;;;;;;;23.30;29.80;;;;;;5102151;28;19931;-63
2022/02/10 07:47:46;;;;;;;;;;;23.30;29.70;;;;;;5109507;28;19969;-63
2022/02/10 07:50:32;;;;;;;;;;;23.30;29.90;;;;;;5110018;28;19950;-64
2022/02/10 07:56:12;;;;;;;;;;;23.30;30.00;;;;;;5087770;28;19942;-64
2022/02/10 07:59:09;;;;;;;;;;;23.30;30.00;;;;;;5087025;28;19932;-63
2022/02/10 08:55:32;;;;;;;;;;;23.30;29.50;;;;;;5089556;28;19928;-63
2022/02/10 09:03:41;;;;;;;;;;;23.30;29.30;;;;;;5074385;28;19924;-63
2022/02/10 09:06:21;;;;;;;;;;;23.30;29.20;;;;;;5090430;28;20020;-64
2022/02/10 09:09:24;;;;;;;;;;;23.30;29.20;;;;;;5084426;28;20282;-65
2022/02/10 09:20:22;;;;;;;;;;;23.30;29.10;;;;;;5073964;28;19924;-63
2022/02/10 09:23:44;;;;;;;;;;;23.30;29.10;;;;;;5089643;28;19925;-62
2022/02/10 09:26:54;;;;;;;;;;;23.40;29.10;;;;;;5064847;28;20056;-62
2022/02/10 09:48:50;;;;;;;;;;;23.40;29.20;;;;;;5093987;28;19928;-63
2022/02/10 09:56:25;;;;;;;;;;;23.40;29.60;;;;;;5077461;28;20024;-61
2022/02/10 09:59:21;;;;;;;;;;;23.40;29.80;;;;;;5091731;28;19936;-64
2022/02/10 10:01:44;;;;;;;;;;;23.50;30.00;;;;;;5092708;28;19928;-63
2022/02/10 10:04:20;;;;;;;;;;;23.50;30.00;;;;;;5092508;28;19924;-64
2022/02/10 10:07:04;;;;;;;;;;;23.50;30.20;;;;;;5091864;28;20369;-63
2022/02/10 10:09:47;;;;;;;;;;;23.60;30.30;;;;;;5090059;28;20373;-63
2022/02/10 10:12:43;;;;;;;;;;;23.60;30.30;;;;;;5091886;28;20399;-61
2022/02/10 10:15:19;;;;;;;;;;;23.60;30.40;;;;;;5108634;28;19923;-62
2022/02/10 10:18:30;;;;;;;;;;;23.60;30.60;;;;;;5112881;28;19927;-60
2022/02/10 10:21:30;;;;;;;;;;;23.70;30.60;;;;;;5113128;28;19925;-62
2022/02/10 10:24:17;;;;;;;;;;;23.70;30.70;;;;;;5103115;28;19924;-61
2022/02/10 10:49:47;;;;;;;;;;;23.90;29.10;;;;;;5076236;28;20001;-63
2022/02/10 10:52:41;;;;;;;;;;;23.90;29.10;;;;;;5075460;28;19986;-63
2022/02/10 10:55:22;;;;;;;;;;;23.90;28.90;;;;;;5084865;28;19935;-64
2022/02/10 10:57:47;;;;;;;;;;;23.90;28.80;;;;;;5079153;28;19932;-66
2022/02/10 11:03:32;;;;;;;;;;;23.90;28.90;;;;;;5087887;28;19924;-63
2022/02/10 11:24:22;;;;;;;;;;;24.00;28.50;;;;;;5111592;28;19935;-63
2022/02/10 11:36:54;;;;;;;;;;;23.80;26.60;;;;;;5085373;28;20343;-62
2022/02/10 11:39:46;;;;;;;;;;;23.70;27.00;;;;;;5087248;28;20031;-63
2022/02/10 11:42:31;;;;;;;;;;;23.70;28.20;;;;;;5081112;28;19931;-63
2022/02/10 12:35:33;;;;;;;;;;;23.80;26.00;;;;;;5091372;28;19928;-64
2022/02/10 12:37:43;;;;;;;;;;;23.70;26.10;;;;;;5086817;28;19936;-64
2022/02/10 13:23:37;;;;;;;;;;;23.80;27.80;;;;;;5082033;28;19940;-62
2022/02/10 13:32:44;;;;;;;;;;;23.70;26.30;;;;;;5092970;28;19931;-65
2022/02/10 14:10:32;;;;;;;;;;;24.10;27.60;;;;;;5092780;28;19947;-64
2022/02/10 14:12:49;;;;;;;;;;;24.10;27.70;;;;;;5085775;28;19951;-64
2022/02/10 14:15:38;;;;;;;;;;;24.10;27.50;;;;;;5094104;28;19924;-63
2022/02/10 14:21:47;;;;;;;;;;;24.10;27.60;;;;;;5082108;28;20418;-63
2022/02/10 14:27:02;;;;;;;;;;;24.10;27.60;;;;;;5087754;28;20009;-62
2022/02/10 14:29:30;;;;;;;;;;;24.20;27.50;;;;;;5087662;28;19981;-65
2022/02/10 14:31:57;;;;;;;;;;;24.10;27.50;;;;;;5084387;28;19925;-64
2022/02/10 14:34:27;;;;;;;;;;;24.20;27.50;;;;;;5085535;28;19970;-64
2022/02/10 14:37:14;;;;;;;;;;;24.20;27.60;;;;;;5088269;28;19997;-65
2022/02/10 14:39:58;;;;;;;;;;;24.20;27.60;;;;;;5089964;28;19932;-64
2022/02/10 14:43:02;;;;;;;;;;;24.20;27.70;;;;;;5081981;28;20058;-65
2022/02/10 15:17:12;;;;;;;;;;;24.20;27.90;;;;;;5085796;28;19929;-64
2022/02/10 15:32:42;;;;;;;;;;;24.10;27.90;;;;;;5076037;28;19924;-64
2022/02/10 15:51:01;;;;;;;;;;;24.00;27.30;;;;;;5089772;28;20056;-64
2022/02/10 15:53:27;;;;;;;;;;;24.00;27.30;;;;;;5087264;28;20034;-64
2022/02/10 15:55:41;;;;;;;;;;;23.90;27.20;;;;;;5090789;28;19931;-64
2022/02/10 16:13:32;;;;;;;;;;;23.70;27.20;;;;;;5087914;28;19964;-67
2022/02/10 16:18:10;;;;;;;;;;;23.60;27.20;;;;;;5087573;28;19924;-64
2022/02/10 16:20:37;;;;;;;;;;;23.60;27.20;;;;;;5090104;28;19928;-65
2022/02/10 16:26:35;;;;;;;;;;;23.60;27.30;;;;;;5089659;28;19941;-64
2022/02/10 16:29:02;;;;;;;;;;;23.50;27.30;;;;;;5088279;28;19928;-64
2022/02/10 16:31:29;;;;;;;;;;;23.50;27.40;;;;;;5088715;28;20335;-63
2022/02/10 16:33:57;;;;;;;;;;;23.50;27.40;;;;;;5087166;28;20393;-63
2022/02/10 16:36:31;;;;;;;;;;;23.50;27.50;;;;;;5088314;28;19931;-63
2022/02/10 16:39:03;;;;;;;;;;;23.40;27.60;;;;;;5088002;28;20038;-63
2022/02/10 16:41:35;;;;;;;;;;;23.40;27.70;;;;;;5088518;28;19924;-64
2022/02/10 16:44:07;;;;;;;;;;;23.40;27.80;;;;;;5088031;28;20006;-63
2022/02/10 16:46:39;;;;;;;;;;;23.30;27.90;;;;;;5089109;28;20003;-66
2022/02/10 16:49:11;;;;;;;;;;;23.40;28.30;;;;;;5087980;28;19963;-63
2022/02/10 16:51:45;;;;;;;;;;;23.40;28.70;;;;;;5071109;28;20013;-64
2022/02/10 16:54:33;;;;;;;;;;;23.40;29.70;;;;;;5088323;28;19931;-63
2022/02/10 16:57:25;;;;;;;;;;;23.40;30.20;;;;;;5088594;28;19952;-63
2022/02/10 17:06:04;;;;;;;;;;;23.40;30.10;;;;;;5075650;28;19977;-62
2022/02/10 17:14:50;;;;;;;;;;;23.40;29.90;;;;;;5087312;28;20007;-62
2022/02/10 17:17:25;;;;;;;;;;;23.30;29.80;;;;;;5073763;28;19959;-62
2022/02/10 17:25:35;;;;;;;;;;;23.30;29.60;;;;;;5090153;28;19927;-62
2022/02/10 17:28:05;;;;;;;;;;;23.30;29.60;;;;;;5069476;28;20351;-62
2022/02/10 17:31:09;;;;;;;;;;;23.30;29.60;;;;;;5089176;28;20290;-62
2022/02/10 17:34:13;;;;;;;;;;;23.20;29.50;;;;;;5086674;28;20377;-62
2022/02/10 17:36:31;;;;;;;;;;;23.30;29.60;;;;;;5089031;28;20373;-62
2022/02/10 17:45:22;;;;;;;;;;;23.20;29.60;;;;;;5088772;28;19924;-63
2022/02/10 17:56:44;;;;;;;;;;;23.10;29.60;;;;;;5088507;28;19970;-63
2022/02/10 17:59:11;;;;;;;;;;;23.10;29.60;;;;;;5087642;28;19924;-63
2022/02/10 18:01:38;;;;;;;;;;;23.10;29.70;;;;;;5070417;28;19970;-62
2022/02/10 18:04:14;;;;;;;;;;;23.10;29.70;;;;;;5091111;28;20005;-63
2022/02/10 18:06:47;;;;;;;;;;;23.10;29.70;;;;;;5074356;28;19924;-63
2022/02/10 18:12:52;;;;;;;;;;;23.00;29.70;;;;;;5090178;28;19928;-62
2022/02/10 18:14:56;;;;;;;;;;;23.00;29.70;;;;;;5092043;28;19951;-63
2022/02/10 18:17:51;;;;;;;;;;;23.00;29.70;;;;;;5090582;28;19993;-63
2022/02/10 18:20:24;;;;;;;;;;;23.00;29.70;;;;;;5092545;28;19985;-63
2022/02/10 18:23:02;;;;;;;;;;;23.00;29.80;;;;;;5088850;28;19924;-62
2022/02/10 18:25:45;;;;;;;;;;;23.00;29.80;;;;;;5092752;28;19928;-63
2022/02/10 19:02:15;;;;;;;;;;;22.80;30.00;;;;;;5090791;28;19919;-63
2022/02/10 19:07:33;;;;;;;;;;;22.80;30.00;;;;;;5089909;28;19974;-63
2022/02/10 19:10:01;;;;;;;;;;;22.80;30.00;;;;;;5090623;28;19971;-62
2022/02/10 19:12:32;;;;;;;;;;;22.80;30.00;;;;;;5088412;28;20427;-63
2022/02/10 19:15:10;;;;;;;;;;;22.80;30.10;;;;;;5091119;28;19924;-63
2022/02/10 19:17:39;;;;;;;;;;;22.80;30.10;;;;;;5088817;28;20358;-63
2022/02/10 19:20:06;;;;;;;;;;;22.80;30.10;;;;;;5091262;28;19924;-63
2022/02/10 19:22:33;;;;;;;;;;;22.80;30.10;;;;;;5088171;28;19998;-63
2022/02/10 19:25:00;;;;;;;;;;;22.80;30.10;;;;;;5090444;28;19928;-63
2022/02/10 19:27:29;;;;;;;;;;;22.80;30.10;;;;;;5088999;28;20120;-63
2022/02/10 19:29:58;;;;;;;;;;;22.80;30.10;;;;;;5090703;28;20337;-63
2022/02/10 19:32:29;;;;;;;;;;;22.80;30.10;;;;;;5070389;28;19963;-63
2022/02/10 19:34:58;;;;;;;;;;;22.80;30.10;;;;;;5090725;28;19974;-63
2022/02/10 19:37:26;;;;;;;;;;;22.80;30.10;;;;;;5088949;28;19931;-63
2022/02/10 19:39:58;;;;;;;;;;;22.80;30.10;;;;;;5090288;28;19987;-63
2022/02/10 19:42:28;;;;;;;;;;;22.80;30.20;;;;;;5088341;28;20385;-63
2022/02/10 19:44:59;;;;;;;;;;;22.80;30.20;;;;;;5090467;28;20011;-63
2022/02/10 19:47:27;;;;;;;;;;;22.70;30.20;;;;;;5088232;28;20019;-63
2022/02/10 19:49:54;;;;;;;;;;;22.70;30.30;;;;;;5090105;28;20101;-63
2022/02/10 19:52:21;;;;;;;;;;;22.70;30.30;;;;;;5088115;28;20015;-63
2022/02/10 19:54:52;;;;;;;;;;;22.70;30.40;;;;;;5089865;28;19931;-63
2022/02/10 19:57:21;;;;;;;;;;;22.70;30.40;;;;;;5089390;28;20002;-63
2022/02/10 19:59:48;;;;;;;;;;;22.70;30.40;;;;;;5089694;28;19955;-63
2022/02/10 20:02:18;;;;;;;;;;;22.60;30.30;;;;;;5088313;28;20435;-63
2022/02/10 20:04:55;;;;;;;;;;;22.60;30.30;;;;;;5089899;28;19935;-63
2022/02/10 20:07:23;;;;;;;;;;;22.60;30.40;;;;;;5088631;28;19924;-63
2022/02/10 20:09:51;;;;;;;;;;;22.60;30.40;;;;;;5089442;28;19959;-63
2022/02/10 20:12:18;;;;;;;;;;;22.60;30.40;;;;;;5087295;28;19924;-62
2022/02/10 20:14:49;;;;;;;;;;;22.60;30.30;;;;;;5089772;28;20450;-63
2022/02/10 20:17:17;;;;;;;;;;;22.60;30.30;;;;;;5088885;28;19924;-63
2022/02/10 20:19:44;;;;;;;;;;;22.60;30.40;;;;;;5089496;28;20019;-63
2022/02/10 20:22:12;;;;;;;;;;;22.60;30.30;;;;;;5087565;28;19975;-63
2022/02/10 20:24:39;;;;;;;;;;;22.60;30.40;;;;;;5088610;28;20115;-63
2022/02/10 20:27:06;;;;;;;;;;;22.60;30.40;;;;;;5088331;28;20018;-62
2022/02/10 20:29:34;;;;;;;;;;;22.60;30.50;;;;;;5089198;28;19928;-63
2022/02/10 20:32:01;;;;;;;;;;;22.50;30.40;;;;;;5087864;28;19969;-62
2022/02/10 20:37:56;;;;;;;;;;;22.50;30.40;;;;;;5087396;28;19962;-63
2022/02/10 20:40:23;;;;;;;;;;;22.50;30.50;;;;;;5089747;28;20450;-63
2022/02/10 20:42:50;;;;;;;;;;;22.50;30.50;;;;;;5086516;28;19925;-63
2022/02/10 20:45:17;;;;;;;;;;;22.50;30.50;;;;;;5089766;28;19982;-65
2022/02/10 20:47:44;;;;;;;;;;;22.50;30.50;;;;;;5087391;28;19924;-63
2022/02/10 20:50:11;;;;;;;;;;;22.50;30.50;;;;;;5089374;28;19924;-63
2022/02/10 20:52:39;;;;;;;;;;;22.50;30.50;;;;;;5086492;28;19990;-63
2022/02/10 20:55:06;;;;;;;;;;;22.50;30.50;;;;;;5089605;28;19924;-62
2022/02/10 20:57:33;;;;;;;;;;;22.50;30.50;;;;;;5087537;28;20507;-63
2022/02/10 21:03:25;;;;;;;;;;;22.50;30.50;;;;;;5086455;28;19943;-63
2022/02/10 21:06:01;;;;;;;;;;;22.50;30.60;;;;;;5090015;28;19931;-63
2022/02/10 21:11:16;;;;;;;;;;;22.50;30.60;;;;;;5088050;28;20332;-63
2022/02/10 21:13:43;;;;;;;;;;;22.40;30.60;;;;;;5087333;28;20018;-63
2022/02/10 21:16:10;;;;;;;;;;;22.40;30.60;;;;;;5089547;28;20031;-63
2022/02/10 21:18:38;;;;;;;;;;;22.40;30.60;;;;;;5087405;28;19924;-63
2022/02/10 21:21:10;;;;;;;;;;;22.40;30.70;;;;;;5088722;28;20031;-62
2022/02/10 21:23:45;;;;;;;;;;;22.40;30.60;;;;;;5086410;28;19924;-63
2022/02/10 21:26:15;;;;;;;;;;;22.40;30.70;;;;;;5089843;28;19948;-62
2022/02/10 21:28:43;;;;;;;;;;;22.40;30.60;;;;;;5086736;28;19967;-63
2022/02/10 21:31:10;;;;;;;;;;;22.40;30.60;;;;;;5088293;28;19977;-63
2022/02/10 21:33:47;;;;;;;;;;;22.40;30.60;;;;;;5087003;28;19924;-63
2022/02/10 21:36:44;;;;;;;;;;;22.40;30.60;;;;;;5090629;28;19924;-63
2022/02/10 21:39:19;;;;;;;;;;;22.40;30.60;;;;;;5091568;28;20104;-63
2022/02/10 21:42:46;;;;;;;;;;;22.40;30.60;;;;;;5091540;28;20018;-63
2022/02/10 21:45:42;;;;;;;;;;;22.50;30.70;;;;;;5091974;28;19928;-63
2022/02/10 21:47:50;;;;;;;;;;;22.40;30.60;;;;;;5090827;28;19924;-63
2022/02/10 21:53:32;;;;;;;;;;;22.50;30.60;;;;;;5089843;28;20022;-63
2022/02/10 21:56:23;;;;;;;;;;;22.50;30.60;;;;;;5093821;28;20306;-63
2022/02/10 21:59:17;;;;;;;;;;;22.50;30.60;;;;;;5074677;28;20030;-63
2022/02/10 22:02:44;;;;;;;;;;;22.50;30.60;;;;;;5091610;28;19924;-62
2022/02/10 22:08:14;;;;;;;;;;;22.50;30.50;;;;;;5091555;28;20435;-63
2022/02/10 22:22:09;;;;;;;;;;;22.60;30.50;;;;;;5090800;28;19919;-63
2022/02/10 22:24:36;;;;;;;;;;;22.50;30.40;;;;;;5091236;28;20024;-63
2022/02/10 22:27:03;;;;;;;;;;;22.60;30.50;;;;;;5091702;28;20313;-63
2022/02/10 22:29:40;;;;;;;;;;;22.60;30.50;;;;;;5091329;28;20015;-62
2022/02/10 22:32:22;;;;;;;;;;;22.60;30.50;;;;;;5090343;28;20337;-64
2022/02/10 22:34:53;;;;;;;;;;;22.60;30.50;;;;;;5091288;28;20032;-62
2022/02/10 22:37:21;;;;;;;;;;;22.50;30.40;;;;;;5090909;28;19967;-63
2022/02/10 22:39:51;;;;;;;;;;;22.50;30.40;;;;;;5091888;28;19959;-63
2022/02/10 22:42:22;;;;;;;;;;;22.60;30.50;;;;;;5089524;28;20235;-63
2022/02/10 22:44:49;;;;;;;;;;;22.50;30.40;;;;;;5091934;28;19982;-63
2022/02/10 22:47:17;;;;;;;;;;;22.50;30.40;;;;;;5089769;28;20216;-63
2022/02/10 22:49:44;;;;;;;;;;;22.60;30.50;;;;;;5091425;28;19979;-63
2022/02/10 22:52:13;;;;;;;;;;;22.50;30.40;;;;;;5089170;28;19993;-63
2022/02/10 22:54:40;;;;;;;;;;;22.50;30.40;;;;;;5091244;28;19924;-63
2022/02/10 22:57:07;;;;;;;;;;;22.50;30.40;;;;;;5090749;28;20304;-63
2022/02/10 22:59:34;;;;;;;;;;;22.50;30.40;;;;;;5091077;28;19976;-63
2022/02/10 23:02:01;;;;;;;;;;;22.50;30.50;;;;;;5089731;28;20019;-63
2022/02/10 23:07:56;;;;;;;;;;;22.50;30.40;;;;;;5089220;28;19919;-63
2022/02/10 23:10:43;;;;;;;;;;;22.50;30.40;;;;;;5091101;28;19934;-63
2022/02/10 23:13:11;;;;;;;;;;;22.50;30.50;;;;;;5088198;28;20019;-63
2022/02/10 23:15:38;;;;;;;;;;;22.50;30.50;;;;;;5091917;28;19924;-63
2022/02/10 23:21:37;;;;;;;;;;;22.50;30.50;;;;;;5089792;28;19919;-62
2022/02/10 23:24:05;;;;;;;;;;;22.50;30.50;;;;;;5089315;28;19979;-63
2022/02/10 23:26:32;;;;;;;;;;;22.50;30.50;;;;;;5090923;28;19959;-63
2022/02/10 23:28:59;;;;;;;;;;;22.50;30.50;;;;;;5088905;28;19979;-63
2022/02/10 23:31:27;;;;;;;;;;;22.50;30.50;;;;;;5089592;28;19935;-63
2022/02/10 23:37:29;;;;;;;;;;;22.50;30.50;;;;;;5089468;28;19927;-63
2022/02/10 23:39:57;;;;;;;;;;;22.50;30.50;;;;;;5090576;28;20488;-63
2022/02/10 23:42:31;;;;;;;;;;;22.50;30.50;;;;;;5088318;28;19924;-62
2022/02/10 23:45:08;;;;;;;;;;;22.50;30.50;;;;;;5090834;28;19924;-64
2022/02/10 23:47:35;;;;;;;;;;;22.50;30.50;;;;;;5088559;28;19963;-62
2022/02/10 23:50:02;;;;;;;;;;;22.50;30.50;;;;;;5090575;28;20022;-63
2022/02/10 23:52:29;;;;;;;;;;;22.50;30.50;;;;;;5088081;28;19924;-62
2022/02/10 23:55:01;;;;;;;;;;;22.50;30.50;;;;;;5090242;28;19956;-63
2022/02/10 23:57:40;;;;;;;;;;;22.50;30.50;;;;;;5088998;28;19959;-63
